Time,TemperatureF,DewpointF,PressureIn,WindDirection,WindDirectionDegrees,WindSpeedMPH,WindSpeedGustMPH,Humidity,HourlyPrecipIn,Conditions,Clouds,dailyrainin,SolarRadiationWatts/m^2,SoftwareType,DateUTC
2013-08-06 00:02:00,55.0,54.0,-100.00,SE,138,1.0,3.0,96,0.00,,,0.00,0.000000,,2013-08-06 04:02:00,
2013-08-06 00:11:00,55.0,54.0,-100.00,SE,138,1.0,3.0,96,0.00,,,0.00,0.000000,,2013-08-06 04:11:00,
2013-08-06 00:22:00,55.0,54.0,-100.00,SE,138,1.0,3.0,96,0.00,,,0.00,0.000000,,2013-08-06 04:22:00,
2013-08-06 00:54:00,53.0,52.0,-100.00,SE,128,0.0,3.0,97,0.00,,,0.00,0.000000,,2013-08-06 04:54:00,
2013-08-06 01:02:00,53.0,52.0,-100.00,SE,128,0.0,3.0,97,0.00,,,0.00,0.000000,,2013-08-06 05:02:00,
2013-08-06 01:11:00,53.0,52.0,-100.00,SE,128,0.0,3.0,97,0.00,,,0.00,0.000000,,2013-08-06 05:11:00,
2013-08-06 01:22:00,53.0,52.0,-100.00,SE,128,0.0,3.0,97,0.00,,,0.00,0.000000,,2013-08-06 05:22:00,
2013-08-06 01:53:00,53.0,53.0,-100.00,WSW,243,0.0,3.0,99,0.00,,,0.00,0.000000,,2013-08-06 05:53:00,
2013-08-06 02:02:00,53.0,53.0,-100.00,WSW,243,0.0,3.0,99,0.00,,,0.00,0.000000,,2013-08-06 06:02:00,
2013-08-06 02:12:00,53.0,53.0,-100.00,WSW,243,0.0,3.0,99,0.00,,,0.00,0.000000,,2013-08-06 06:12:00,
2013-08-06 02:22:00,53.0,53.0,-100.00,WSW,243,0.0,3.0,99,0.00,,,0.00,0.000000,,2013-08-06 06:22:00,
2013-08-06 02:52:00,54.0,53.0,-100.00,SE,130,0.0,2.0,98,0.00,,,0.00,0.000000,,2013-08-06 06:52:00,
2013-08-06 03:01:00,54.0,53.0,-100.00,SE,130,0.0,2.0,98,0.00,,,0.00,0.000000,,2013-08-06 07:01:00,
2013-08-06 03:12:00,54.0,53.0,-100.00,SE,130,0.0,2.0,98,0.00,,,0.00,0.000000,,2013-08-06 07:12:00,
2013-08-06 03:22:00,54.0,53.0,-100.00,SE,130,0.0,2.0,98,0.00,,,0.00,0.000000,,2013-08-06 07:22:00,
2013-08-06 03:53:00,54.0,53.0,-100.00,SW,231,0.0,2.0,98,0.00,,,0.00,0.000000,,2013-08-06 07:53:00,
2013-08-06 04:02:00,54.0,53.0,-100.00,SW,231,0.0,2.0,98,0.00,,,0.00,0.000000,,2013-08-06 08:02:00,
2013-08-06 04:11:00,54.0,53.0,-100.00,SW,231,0.0,2.0,98,0.00,,,0.00,0.000000,,2013-08-06 08:11:00,
2013-08-06 04:22:00,54.0,53.0,-100.00,SW,231,0.0,2.0,98,0.00,,,0.00,0.000000,,2013-08-06 08:22:00,
2013-08-06 04:52:00,54.0,53.0,-100.00,SE,132,2.0,3.0,98,0.00,,,0.00,0.000000,,2013-08-06 08:52:00,
2013-08-06 05:01:00,54.0,53.0,-100.00,SE,132,2.0,3.0,98,0.00,,,0.00,0.000000,,2013-08-06 09:01:00,
2013-08-06 05:11:00,54.0,53.0,-100.00,SE,132,2.0,3.0,98,0.00,,,0.00,0.000000,,2013-08-06 09:11:00,
2013-08-06 05:22:00,54.0,53.0,-100.00,SE,132,2.0,3.0,98,0.00,,,0.00,0.000000,,2013-08-06 09:22:00,
2013-08-06 05:52:00,54.0,54.0,-100.00,SSE,168,0.0,3.0,99,0.00,,,0.00,0.000000,,2013-08-06 09:52:00,
2013-08-06 06:01:00,54.0,54.0,-100.00,SSE,168,0.0,3.0,99,0.00,,,0.00,0.000000,,2013-08-06 10:01:00,
2013-08-06 06:12:00,54.0,54.0,-100.00,SSE,168,0.0,3.0,99,0.00,,,0.00,0.000000,,2013-08-06 10:12:00,
2013-08-06 06:22:00,54.0,54.0,-100.00,SSE,168,0.0,3.0,99,0.00,,,0.00,0.000000,,2013-08-06 10:22:00,
2013-08-06 06:53:00,53.0,53.0,-100.00,SE,135,0.0,3.0,99,0.00,,,0.00,1.000000,,2013-08-06 10:53:00,
2013-08-06 07:02:00,53.0,53.0,-100.00,SE,135,0.0,3.0,99,0.00,,,0.00,1.000000,,2013-08-06 11:02:00,
2013-08-06 07:11:00,53.0,53.0,-100.00,SE,135,0.0,3.0,99,0.00,,,0.00,1.000000,,2013-08-06 11:11:00,
2013-08-06 07:22:00,53.0,53.0,-100.00,SE,135,0.0,3.0,99,0.00,,,0.00,1.000000,,2013-08-06 11:22:00,
2013-08-06 07:53:00,55.0,54.0,-100.00,NE,40,0.0,2.0,98,0.00,,,0.00,31.000000,,2013-08-06 11:53:00,
2013-08-06 08:02:00,55.0,54.0,-100.00,NE,40,0.0,2.0,98,0.00,,,0.00,31.000000,,2013-08-06 12:02:00,
2013-08-06 08:11:00,55.0,54.0,-100.00,NE,40,0.0,2.0,98,0.00,,,0.00,31.000000,,2013-08-06 12:11:00,
2013-08-06 08:22:00,55.0,54.0,-100.00,NE,40,0.0,2.0,98,0.00,,,0.00,31.000000,,2013-08-06 12:22:00,
2013-08-06 08:52:00,64.0,57.0,-100.00,SW,215,2.0,4.0,79,0.00,,,0.00,172.000000,,2013-08-06 12:52:00,
2013-08-06 09:02:00,64.0,57.0,-100.00,SW,215,2.0,4.0,79,0.00,,,0.00,172.000000,,2013-08-06 13:02:00,
2013-08-06 09:11:00,64.0,57.0,-100.00,SW,215,2.0,4.0,79,0.00,,,0.00,172.000000,,2013-08-06 13:11:00,
2013-08-06 09:22:00,64.0,57.0,-100.00,SW,215,2.0,4.0,79,0.00,,,0.00,172.000000,,2013-08-06 13:22:00,
2013-08-06 09:53:00,68.0,55.0,-100.00,SSW,199,3.0,5.0,64,0.00,,,0.00,277.000000,,2013-08-06 13:53:00,
2013-08-06 10:01:00,68.0,55.0,-100.00,SSW,199,3.0,5.0,64,0.00,,,0.00,277.000000,,2013-08-06 14:01:00,
2013-08-06 10:11:00,68.0,55.0,-100.00,SSW,199,3.0,5.0,64,0.00,,,0.00,277.000000,,2013-08-06 14:11:00,
2013-08-06 10:22:00,68.0,55.0,-100.00,SSW,199,3.0,5.0,64,0.00,,,0.00,277.000000,,2013-08-06 14:22:00,
2013-08-06 10:53:00,71.0,54.0,-100.00,SSW,197,3.0,5.0,56,0.00,,,0.00,345.000000,,2013-08-06 14:53:00,
2013-08-06 11:02:00,71.0,54.0,-100.00,SSW,197,3.0,5.0,56,0.00,,,0.00,345.000000,,2013-08-06 15:02:00,
2013-08-06 11:12:00,71.0,54.0,-100.00,SSW,197,3.0,5.0,56,0.00,,,0.00,345.000000,,2013-08-06 15:12:00,
2013-08-06 11:23:00,71.0,54.0,-100.00,SSW,197,3.0,5.0,56,0.00,,,0.00,345.000000,,2013-08-06 15:23:00,
2013-08-06 11:52:00,74.0,54.0,-100.00,SSW,195,3.0,6.0,50,0.00,,,0.00,471.000000,,2013-08-06 15:52:00,
2013-08-06 12:02:00,74.0,54.0,-100.00,SSW,195,3.0,6.0,50,0.00,,,0.00,471.000000,,2013-08-06 16:02:00,
2013-08-06 12:11:00,74.0,54.0,-100.00,SSW,195,3.0,6.0,50,0.00,,,0.00,471.000000,,2013-08-06 16:11:00,
2013-08-06 12:22:00,74.0,54.0,-100.00,SSW,195,3.0,6.0,50,0.00,,,0.00,471.000000,,2013-08-06 16:22:00,
2013-08-06 12:52:00,77.0,55.0,-100.00,South,170,3.0,9.0,47,0.00,,,0.00,776.000000,,2013-08-06 16:52:00,
2013-08-06 13:02:00,77.0,55.0,-100.00,South,170,3.0,9.0,47,0.00,,,0.00,776.000000,,2013-08-06 17:02:00,
2013-08-06 13:11:00,77.0,55.0,-100.00,South,170,3.0,9.0,47,0.00,,,0.00,776.000000,,2013-08-06 17:11:00,
2013-08-06 13:22:00,77.0,55.0,-100.00,South,170,3.0,9.0,47,0.00,,,0.00,776.000000,,2013-08-06 17:22:00,
2013-08-06 13:52:00,78.0,54.0,-100.00,SW,233,4.0,9.0,44,0.00,,,0.00,824.000000,,2013-08-06 17:52:00,
2013-08-06 14:02:00,78.0,54.0,-100.00,SW,233,4.0,9.0,44,0.00,,,0.00,824.000000,,2013-08-06 18:02:00,
2013-08-06 14:11:00,78.0,54.0,-100.00,SW,233,4.0,9.0,44,0.00,,,0.00,824.000000,,2013-08-06 18:11:00,
2013-08-06 14:22:00,78.0,54.0,-100.00,SW,233,4.0,9.0,44,0.00,,,0.00,824.000000,,2013-08-06 18:22:00,
2013-08-06 14:52:00,77.0,55.0,-100.00,West,276,4.0,10.0,46,0.00,,,0.00,717.000000,,2013-08-06 18:52:00,
2013-08-06 15:01:00,77.0,55.0,-100.00,West,276,4.0,10.0,46,0.00,,,0.00,717.000000,,2013-08-06 19:01:00,
2013-08-06 15:11:00,77.0,55.0,-100.00,West,276,4.0,10.0,46,0.00,,,0.00,717.000000,,2013-08-06 19:11:00,
2013-08-06 15:22:00,77.0,55.0,-100.00,West,276,4.0,10.0,46,0.00,,,0.00,717.000000,,2013-08-06 19:22:00,
2013-08-06 15:52:00,79.0,55.0,-100.00,North,7,4.0,9.0,44,0.00,,,0.00,776.000000,,2013-08-06 19:52:00,
2013-08-06 16:01:00,79.0,55.0,-100.00,North,7,4.0,9.0,44,0.00,,,0.00,776.000000,,2013-08-06 20:01:00,
2013-08-06 16:11:00,79.0,55.0,-100.00,North,7,4.0,9.0,44,0.00,,,0.00,776.000000,,2013-08-06 20:11:00,
2013-08-06 16:22:00,79.0,55.0,-100.00,North,7,4.0,9.0,44,0.00,,,0.00,776.000000,,2013-08-06 20:22:00,
2013-08-06 16:52:00,80.0,55.0,-100.00,SSE,161,2.0,5.0,42,0.00,,,0.00,457.000000,,2013-08-06 20:52:00,
2013-08-06 17:01:00,80.0,55.0,-100.00,SSE,161,2.0,5.0,42,0.00,,,0.00,457.000000,,2013-08-06 21:01:00,
2013-08-06 17:12:00,80.0,55.0,-100.00,SSE,161,2.0,5.0,42,0.00,,,0.00,457.000000,,2013-08-06 21:12:00,
2013-08-06 17:22:00,80.0,55.0,-100.00,SSE,161,2.0,5.0,42,0.00,,,0.00,457.000000,,2013-08-06 21:22:00,
2013-08-06 17:52:00,80.0,55.0,-100.00,ESE,113,3.0,6.0,42,0.00,,,0.00,497.000000,,2013-08-06 21:52:00,
2013-08-06 18:01:00,80.0,55.0,-100.00,ESE,113,3.0,6.0,42,0.00,,,0.00,497.000000,,2013-08-06 22:01:00,
2013-08-06 18:11:00,80.0,55.0,-100.00,ESE,113,3.0,6.0,42,0.00,,,0.00,497.000000,,2013-08-06 22:11:00,
2013-08-06 18:22:00,80.0,55.0,-100.00,ESE,113,3.0,6.0,42,0.00,,,0.00,497.000000,,2013-08-06 22:22:00,
2013-08-06 18:53:00,79.0,56.0,-100.00,ESE,104,3.0,9.0,45,0.00,,,0.00,382.000000,,2013-08-06 22:53:00,
2013-08-06 19:02:00,79.0,56.0,-100.00,ESE,104,3.0,9.0,45,0.00,,,0.00,382.000000,,2013-08-06 23:02:00,
2013-08-06 19:11:00,79.0,56.0,-100.00,ESE,104,3.0,9.0,45,0.00,,,0.00,382.000000,,2013-08-06 23:11:00,
2013-08-06 19:22:00,79.0,56.0,-100.00,ESE,104,3.0,9.0,45,0.00,,,0.00,382.000000,,2013-08-06 23:22:00,
2013-08-06 19:52:00,76.0,60.0,-100.00,NE,56,3.0,7.0,57,0.00,,,0.00,184.000000,,2013-08-06 23:52:00,
2013-08-06 20:01:00,76.0,60.0,-100.00,NE,56,3.0,7.0,57,0.00,,,0.00,184.000000,,2013-08-07 00:01:00,
2013-08-06 20:11:00,76.0,60.0,-100.00,NE,56,3.0,7.0,57,0.00,,,0.00,184.000000,,2013-08-07 00:11:00,
2013-08-06 20:22:00,76.0,60.0,-100.00,NE,56,3.0,7.0,57,0.00,,,0.00,184.000000,,2013-08-07 00:22:00,
2013-08-06 20:52:00,70.0,60.0,-100.00,ENE,65,3.0,8.0,71,0.00,,,0.00,26.000000,,2013-08-07 00:52:00,
2013-08-06 21:01:00,70.0,60.0,-100.00,ENE,65,3.0,8.0,71,0.00,,,0.00,26.000000,,2013-08-07 01:01:00,
2013-08-06 21:11:00,70.0,60.0,-100.00,ENE,65,3.0,8.0,71,0.00,,,0.00,26.000000,,2013-08-07 01:11:00,
2013-08-06 21:22:00,70.0,60.0,-100.00,ENE,65,3.0,8.0,71,0.00,,,0.00,26.000000,,2013-08-07 01:22:00,
2013-08-06 21:53:00,68.0,61.0,-100.00,East,82,2.0,5.0,77,0.00,,,0.00,0.000000,,2013-08-07 01:53:00,
2013-08-06 22:02:00,68.0,61.0,-100.00,East,82,2.0,5.0,77,0.00,,,0.00,0.000000,,2013-08-07 02:02:00,
2013-08-06 22:11:00,68.0,61.0,-100.00,East,82,2.0,5.0,77,0.00,,,0.00,0.000000,,2013-08-07 02:11:00,
2013-08-06 22:22:00,68.0,61.0,-100.00,East,82,2.0,5.0,77,0.00,,,0.00,0.000000,,2013-08-07 02:22:00,
2013-08-06 22:53:00,66.0,60.0,-100.00,ESE,118,4.0,6.0,81,0.00,,,0.00,0.000000,,2013-08-07 02:53:00,
2013-08-06 23:01:00,66.0,60.0,-100.00,ESE,118,4.0,6.0,81,0.00,,,0.00,0.000000,,2013-08-07 03:01:00,
2013-08-06 23:12:00,66.0,60.0,-100.00,ESE,118,4.0,6.0,81,0.00,,,0.00,0.000000,,2013-08-07 03:12:00,
2013-08-06 23:23:00,66.0,60.0,-100.00,ESE,118,4.0,6.0,81,0.00,,,0.00,0.000000,,2013-08-07 03:23:00,
2013-08-06 23:52:00,65.0,60.0,-100.00,ESE,120,3.0,5.0,84,0.00,,,0.00,0.000000,,2013-08-07 03:52:00,